Meteorología y climatología de Navarra
Datos de la estación - Meteo Navarra

Estación de Tudela (Montes del Cierzo) GN

Altitud 314 m.


Datos desde el 11/10/2018 hasta el 12/10/2018 en horario solar
Los datos son PROVISIONALES

Anterior Página 1 de 1 Siguiente Descargar: Formato para Excel 2000 o superior   Formato csv   Formato para OpenOffice Calc
Fecha Temperatura Humedad relativa Radiación global Insolación Precipitación Velocidad viento 10 m Velocidad viento 10 m Dirección viento 10 m
ºC % W/m² s l/m² m/s km/h º
11/10/2018 0:00 15.5 82 0.0 0 0.0 6.4 23.0 145
11/10/2018 0:10 15.7 82 0.0 0 0.0 6.8 24.4 149
11/10/2018 0:20 15.6 83 0.0 0 0.0 6.6 23.6 148
11/10/2018 0:30 15.4 84 0.0 0 0.0 6.0 21.6 143
11/10/2018 0:40 15.3 85 0.0 0 0.0 5.7 20.7 143
11/10/2018 0:50 15.3 85 0.0 0 0.0 6.1 21.8 147
11/10/2018 1:00 15.3 86 0.0 0 0.0 5.8 20.9 144
11/10/2018 1:10 14.9 87 0.0 0 0.0 4.8 17.4 146
11/10/2018 1:20 14.9 88 0.0 0 0.0 5.2 18.8 141
11/10/2018 1:30 14.7 89 0.0 0 0.0 4.5 16.1 133
11/10/2018 1:40 14.2 90 0.0 0 0.0 2.6 9.3 115
11/10/2018 1:50 14.2 92 0.0 0 0.0 3.9 13.9 134
11/10/2018 2:00 14.4 91 0.0 0 0.0 4.9 17.8 138
11/10/2018 2:10 14.5 91 0.0 0 0.0 4.7 17.1 132
11/10/2018 2:20 14.6 91 0.0 0 0.0 5.4 19.6 141
11/10/2018 2:30 14.7 90 0.0 0 0.0 6.2 22.2 146
11/10/2018 2:40 14.7 90 0.0 0 0.0 6.6 23.6 150
11/10/2018 2:50 14.9 91 0.0 0 0.0 6.8 24.6 151
11/10/2018 3:00 15.1 90 0.0 0 0.0 7.5 27.1 157
11/10/2018 3:10 15.0 90 0.0 0 0.0 7.8 27.9 156
11/10/2018 3:20 15.0 90 0.0 0 0.0 7.4 26.6 156
11/10/2018 3:30 15.0 90 0.0 0 0.0 7.3 26.4 156
11/10/2018 3:40 15.1 89 0.0 0 0.0 7.7 27.6 149
11/10/2018 3:50 15.1 89 0.0 0 0.0 7.6 27.4 151
11/10/2018 4:00 14.9 89 0.0 0 0.0 7.0 25.1 155
11/10/2018 4:10 14.9 89 0.0 0 0.0 7.3 26.1 152
11/10/2018 4:20 14.8 89 0.0 0 0.0 7.3 26.1 154
11/10/2018 4:30 14.8 89 0.0 0 0.0 6.9 24.7 150
11/10/2018 4:40 14.7 89 0.0 0 0.0 7.7 27.8 146
11/10/2018 4:50 14.7 89 0.0 0 0.0 6.9 24.7 139
11/10/2018 5:00 14.5 90 0.0 0 0.0 7.4 26.8 139
11/10/2018 5:10 14.6 90 0.0 0 0.0 7.8 27.9 141
11/10/2018 5:20 14.5 90 0.0 0 0.0 7.6 27.3 143
11/10/2018 5:30 14.6 90 0.0 0 0.0 7.7 27.8 140
11/10/2018 5:40 14.5 89 0.0 0 0.0 6.9 24.8 133
11/10/2018 5:50 14.5 89 0.0 0 0.0 5.3 19.1 120
11/10/2018 6:00 14.5 89 0.0 0 0.0 4.8 17.2 114
11/10/2018 6:10 14.5 89 0.0 0 0.0 4.7 17.0 123
11/10/2018 6:20 14.6 88 0.0 0 0.0 5.0 18.0 131
11/10/2018 6:30 14.6 89 16.1 0 0.0 4.4 15.9 129
11/10/2018 6:40 14.8 88 35.4 452 0.0 4.8 17.2 133
11/10/2018 6:50 15.2 86 65.9 600 0.0 4.9 17.7 142
11/10/2018 7:00 15.6 84 50.0 164 0.0 5.3 19.0 150
11/10/2018 7:10 15.4 85 24.2 0 0.0 6.7 24.1 142
11/10/2018 7:20 15.2 86 36.5 0 0.0 7.5 27.0 139
11/10/2018 7:30 15.1 87 42.8 0 0.0 6.5 23.5 137
11/10/2018 7:40 15.1 87 75.7 0 0.0 7.7 27.7 136
11/10/2018 7:50 15.2 87 98.8 0 0.0 6.6 23.8 133
11/10/2018 8:00 15.4 88 131.3 0 0.0 7.6 27.3 133
11/10/2018 8:10 15.6 87 198.6 400 0.0 7.5 26.8 130
11/10/2018 8:20 16.4 84 316.9 600 0.0 7.1 25.6 132
11/10/2018 8:30 17.2 81 382.3 600 0.0 6.8 24.4 129
11/10/2018 8:40 17.5 78 215.5 266 0.0 6.2 22.3 141
11/10/2018 8:50 17.7 77 213.3 254 0.0 6.5 23.2 140
11/10/2018 9:00 17.7 77 281.2 308 0.0 6.2 22.3 139
11/10/2018 9:10 18.4 74 404.4 488 0.0 6.8 24.5 142
11/10/2018 9:20 19.0 71 404.2 396 0.0 7.7 27.9 143
11/10/2018 9:30 19.1 69 351.9 302 0.0 8.2 29.4 147
11/10/2018 9:40 19.4 69 462.8 600 0.0 8.2 29.5 142
11/10/2018 9:50 19.9 67 430.8 494 0.0 8.0 28.8 142
11/10/2018 10:00 19.8 66 220.8 92 0.0 8.2 29.4 152
11/10/2018 10:10 19.7 65 138.8 0 0.0 7.9 28.3 152
11/10/2018 10:20 19.8 65 160.4 0 0.0 7.3 26.4 149
11/10/2018 10:30 20.0 64 187.9 0 0.0 7.6 27.4 153
11/10/2018 10:40 20.1 64 84.4 0 0.0 7.5 27.1 151
11/10/2018 10:50 19.9 65 70.6 0 0.0 7.2 25.8 148
11/10/2018 11:00 20.0 65 81.4 0 0.0 6.1 22.0 144
11/10/2018 11:10 20.0 66 55.5 0 0.0 5.4 19.6 147
11/10/2018 11:20 19.7 71 110.4 0 0.0 5.8 20.7 149
11/10/2018 11:30 19.4 73 102.1 0 0.0 5.6 20.3 149
11/10/2018 11:40 19.8 70 195.3 0 0.0 6.9 24.9 148
11/10/2018 11:50 20.2 68 179.1 0 0.0 6.9 24.9 151
11/10/2018 12:00 20.1 68 105.8 0 0.0 6.4 22.9 156
11/10/2018 12:10 20.1 68 128.7 0 0.0 6.7 24.1 162
11/10/2018 12:20 20.2 67 147.4 0 0.0 6.9 25.0 159
11/10/2018 12:30 20.5 65 227.2 0 0.0 6.6 23.9 152
11/10/2018 12:40 20.8 65 220.9 0 0.0 6.0 21.5 152
11/10/2018 12:50 20.9 65 196.3 0 0.0 5.9 21.1 157
11/10/2018 13:00 20.9 64 185.2 0 0.0 6.5 23.4 154
11/10/2018 13:10 21.3 63 253.1 0 0.0 5.1 18.3 160
11/10/2018 13:20 21.7 60 169.3 0 0.0 5.6 20.1 165
11/10/2018 13:30 21.8 59 173.8 0 0.0 5.9 21.2 159
11/10/2018 13:40 21.9 59 154.6 0 0.0 6.4 22.9 158
11/10/2018 13:50 21.6 61 153.1 0 0.0 7.0 25.2 171
11/10/2018 14:00 21.9 61 384.2 320 0.0 4.7 16.9 175
11/10/2018 14:10 22.9 58 403.0 418 0.0 5.2 18.5 165
11/10/2018 14:20 22.8 58 234.2 142 0.0 6.5 23.2 172
11/10/2018 14:30 22.5 59 174.7 0 0.0 5.0 17.8 149
11/10/2018 14:40 22.1 61 130.1 0 0.0 5.4 19.4 118
11/10/2018 14:50 21.6 63 104.6 0 0.0 5.7 20.6 139
11/10/2018 15:00 21.8 62 121.9 0 0.0 5.1 18.2 149
11/10/2018 15:10 22.5 60 224.7 218 0.0 5.3 19.1 151
11/10/2018 15:20 22.4 60 112.8 24 0.0 5.5 19.7 144
11/10/2018 15:30 21.9 62 90.4 0 0.0 5.1 18.3 144
11/10/2018 15:40 21.9 63 68.4 0 0.0 4.6 16.6 148
11/10/2018 15:50 22.2 61 40.6 0 0.0 5.0 18.0 146
11/10/2018 16:00 21.8 63 38.3 0 0.0 4.8 17.1 145
11/10/2018 16:10 21.8 63 72.0 0 0.0 4.7 16.9 146
11/10/2018 16:20 22.0 63 83.3 0 0.0 4.3 15.3 145
11/10/2018 16:30 22.1 62 74.7 0 0.0 3.6 12.9 148
11/10/2018 16:40 21.7 67 57.4 0 0.0 3.0 10.8 129
11/10/2018 16:50 21.1 70 46.4 0 0.0 3.6 12.9 136
11/10/2018 17:00 20.5 71 38.3 0 0.0 4.0 14.4 139
11/10/2018 17:10 21.2 64 15.4 0 0.0 4.0 14.5 154
11/10/2018 17:20 21.3 63 0.0 0 0.0 4.2 14.9 150
11/10/2018 17:30 20.6 67 0.0 0 0.0 3.7 13.2 148
11/10/2018 17:40 20.5 65 0.0 0 0.0 4.4 15.9 156
11/10/2018 17:50 20.7 64 0.0 0 0.0 4.4 15.9 162
11/10/2018 18:00 21.1 63 0.0 0 0.0 4.5 16.2 163
11/10/2018 18:10 21.2 62 0.0 0 0.0 4.7 17.0 163
11/10/2018 18:20 21.7 59 0.0 0 0.0 5.9 21.2 158
11/10/2018 18:30 21.8 61 0.0 0 0.0 5.6 20.1 159
11/10/2018 18:40 21.2 64 0.0 0 0.0 5.1 18.5 160
11/10/2018 18:50 20.9 65 0.0 0 0.0 5.0 18.1 163
11/10/2018 19:00 20.8 66 0.0 0 0.0 5.3 19.0 160
11/10/2018 19:10 20.7 67 0.0 0 0.0 5.4 19.3 158
11/10/2018 19:20 20.7 67 0.0 0 0.0 5.5 19.7 159
11/10/2018 19:30 20.7 67 0.0 0 0.0 6.5 23.3 153
11/10/2018 19:40 20.4 69 0.0 0 0.0 5.8 21.0 155
11/10/2018 19:50 20.1 70 0.0 0 0.0 6.1 21.9 156
11/10/2018 20:00 20.1 70 0.0 0 0.0 5.6 20.0 161
11/10/2018 20:10 20.1 69 0.0 0 0.0 5.6 20.1 154
11/10/2018 20:20 20.0 70 0.0 0 0.0 5.3 19.0 151
11/10/2018 20:30 19.8 70 0.0 0 0.0 5.2 18.5 154
11/10/2018 20:40 19.4 72 0.0 0 0.0 4.3 15.4 150
11/10/2018 20:50 18.9 74 0.0 0 0.0 4.3 15.4 142
11/10/2018 21:00 19.1 72 0.0 0 0.0 4.7 17.0 146
11/10/2018 21:10 19.3 71 0.0 0 0.0 5.3 19.0 145
11/10/2018 21:20 19.3 70 0.0 0 0.0 4.7 16.7 147
11/10/2018 21:30 19.4 69 0.0 0 0.0 3.8 13.5 140
11/10/2018 21:40 19.1 70 0.0 0 0.0 2.5 9.1 146
11/10/2018 21:50 18.4 74 0.0 0 0.0 3.3 12.0 134
11/10/2018 22:00 17.5 78 0.0 0 0.0 2.6 9.5 112
11/10/2018 22:10 17.7 77 0.0 0 0.0 3.6 13.0 118
11/10/2018 22:20 17.5 79 0.0 0 0.0 3.1 11.1 117
11/10/2018 22:30 17.5 79 0.0 0 0.0 3.7 13.4 131
11/10/2018 22:40 18.8 72 0.0 0 0.0 4.0 14.4 135
11/10/2018 22:50 18.0 76 0.0 0 0.0 3.0 10.7 118
11/10/2018 23:00 17.6 78 0.0 0 0.0 3.1 11.2 120
11/10/2018 23:10 17.6 78 0.0 0 0.0 2.8 10.1 133
11/10/2018 23:20 17.9 77 0.0 0 0.0 3.8 13.8 136
11/10/2018 23:30 18.9 74 0.0 0 0.0 5.0 18.1 148
11/10/2018 23:40 19.3 72 0.0 0 0.0 4.2 15.1 148
11/10/2018 23:50 19.1 73 0.0 0 0.0 2.9 10.3 151
Anterior Página 1 de 1 Siguiente

NOTA: Tipo de datos según el color:
   - Valores diarios o 10 minutos correctos
   - Valores diarios calculados a partir de un número de datos 10 minutos menor que 144 y mayor que 120, o de un número de datos semihorarios menor que 48 y mayor que 40 (caso de las estaciones de Riegos de Navarra y del MARM)
   - Valores diez minutos estimados


Contacto        Enlaces        Aviso legal